createdAt,value
2023-03-18T00:03:03.920Z,385.00
2023-03-18T00:07:03.969Z,381.00
2023-03-18T00:11:03.871Z,380.00
2023-03-18T00:15:03.971Z,376.00
2023-03-18T00:19:03.881Z,381.00
2023-03-18T00:23:03.818Z,381.00
2023-03-18T00:27:03.735Z,379.00
2023-03-18T00:31:03.773Z,380.00
2023-03-18T00:35:03.684Z,380.00
2023-03-18T00:39:03.614Z,383.00
2023-03-18T00:43:03.589Z,382.00
2023-03-18T00:47:03.583Z,388.00
2023-03-18T00:51:03.534Z,391.00
2023-03-18T00:55:03.528Z,387.00
2023-03-18T00:59:03.445Z,382.00
2023-03-18T01:03:03.477Z,379.00
2023-03-18T01:07:03.404Z,380.00
2023-03-18T01:11:03.374Z,380.00
2023-03-18T01:15:03.362Z,380.00
2023-03-18T01:19:03.282Z,376.00
2023-03-18T01:23:03.310Z,374.00
2023-03-18T01:27:03.285Z,377.00
2023-03-18T01:31:03.308Z,380.00
2023-03-18T01:35:03.180Z,377.00
2023-03-18T01:39:03.235Z,381.00
2023-03-18T01:43:03.128Z,382.00
2023-03-18T01:47:03.112Z,379.00
2023-03-18T01:51:03.027Z,376.00
2023-03-18T01:55:03.043Z,375.00
2023-03-18T01:59:02.983Z,383.00
2023-03-18T02:03:03.000Z,385.00
2023-03-18T02:07:02.919Z,383.00
2023-03-18T02:11:02.842Z,377.00
2023-03-18T02:15:02.868Z,376.00
2023-03-18T02:19:02.784Z,373.00
2023-03-18T02:23:02.788Z,373.00
2023-03-18T02:27:02.760Z,374.00
2023-03-18T02:31:02.704Z,372.00
2023-03-18T02:35:02.666Z,371.00
2023-03-18T02:39:02.984Z,370.00
2023-03-18T02:43:02.616Z,370.00
2023-03-18T02:47:02.681Z,371.00
2023-03-18T02:51:02.692Z,372.00
2023-03-18T02:55:02.877Z,376.00
2023-03-18T02:59:02.827Z,375.00
2023-03-18T03:03:02.867Z,378.00
2023-03-18T03:07:02.758Z,377.00
2023-03-18T03:11:02.641Z,384.00
2023-03-18T03:15:02.645Z,380.00
2023-03-18T03:19:02.582Z,377.00
2023-03-18T03:23:02.577Z,374.00
2023-03-18T03:27:02.528Z,375.00
2023-03-18T03:31:02.490Z,374.00
2023-03-18T03:35:02.428Z,371.00
2023-03-18T03:39:02.452Z,371.00
2023-03-18T03:43:02.444Z,370.00
2023-03-18T03:47:02.373Z,374.00
2023-03-18T03:51:02.319Z,371.00
2023-03-18T03:55:02.284Z,371.00
2023-03-18T03:59:02.219Z,373.00
2023-03-18T04:03:02.240Z,372.00
2023-03-18T04:07:02.223Z,365.00
2023-03-18T04:11:02.394Z,372.00
2023-03-18T04:15:02.569Z,372.00
2023-03-18T04:19:02.686Z,372.00
2023-03-18T04:23:02.910Z,368.00
2023-03-18T04:27:02.968Z,367.00
2023-03-18T04:31:03.205Z,369.00
2023-03-18T04:35:03.282Z,371.00
2023-03-18T04:39:03.409Z,372.00
2023-03-18T04:43:03.647Z,370.00
2023-03-18T04:47:03.817Z,370.00
2023-03-18T04:51:03.929Z,367.00
2023-03-18T04:55:04.075Z,366.00
2023-03-18T04:59:04.307Z,364.00
2023-03-18T05:03:04.521Z,367.00
2023-03-18T05:07:04.852Z,365.00
2023-03-18T05:11:04.883Z,369.00
2023-03-18T05:15:05.131Z,365.00
2023-03-18T05:19:05.397Z,363.00
2023-03-18T05:23:05.565Z,365.00
2023-03-18T05:27:05.819Z,364.00
2023-03-18T05:31:06.058Z,366.00
2023-03-18T05:35:06.170Z,370.00
2023-03-18T05:39:05.981Z,368.00
2023-03-18T05:43:05.940Z,364.00
2023-03-18T05:47:05.874Z,361.00
2023-03-18T05:51:05.853Z,362.00
2023-03-18T05:55:05.823Z,364.00
2023-03-18T05:59:05.818Z,364.00
2023-03-18T06:03:05.794Z,363.00
2023-03-18T06:07:05.709Z,361.00
2023-03-18T06:11:05.900Z,363.00
2023-03-18T06:15:05.845Z,365.00
2023-03-18T06:19:05.842Z,361.00
2023-03-18T06:23:05.747Z,367.00
2023-03-18T06:27:05.708Z,365.00
2023-03-18T06:31:05.790Z,363.00
2023-03-18T06:35:05.642Z,366.00
2023-03-18T06:39:05.658Z,357.00
2023-03-18T06:43:05.686Z,359.00
2023-03-18T06:47:05.570Z,357.00
2023-03-18T06:51:05.778Z,349.00
2023-03-18T06:55:05.678Z,346.00
2023-03-18T06:59:05.595Z,346.00
2023-03-18T07:03:05.586Z,352.00
2023-03-18T07:07:05.584Z,348.00
2023-03-18T07:11:05.517Z,351.00
2023-03-18T07:15:05.619Z,348.00
2023-03-18T07:19:05.472Z,349.00
2023-03-18T07:23:05.402Z,346.00
2023-03-18T07:27:05.371Z,346.00
2023-03-18T07:31:05.526Z,344.00
2023-03-18T07:35:05.488Z,349.00
2023-03-18T07:39:05.456Z,350.00
2023-03-18T07:43:05.434Z,348.00
2023-03-18T07:47:05.328Z,347.00
2023-03-18T07:51:05.337Z,349.00
2023-03-18T07:55:05.303Z,347.00
2023-03-18T07:59:05.231Z,348.00
2023-03-18T08:03:05.214Z,344.00
2023-03-18T08:07:05.162Z,342.00
2023-03-18T08:11:05.162Z,340.00
2023-03-18T08:15:05.652Z,346.00
2023-03-18T08:19:05.480Z,343.00
2023-03-18T08:23:05.721Z,343.00
2023-03-18T08:27:05.942Z,341.00
2023-03-18T08:31:06.145Z,343.00
2023-03-18T08:35:06.364Z,346.00
2023-03-18T08:39:06.499Z,344.00
2023-03-18T08:43:06.713Z,347.00
2023-03-18T08:47:06.887Z,344.00
2023-03-18T08:51:07.128Z,345.00
2023-03-18T08:55:07.272Z,346.00
2023-03-18T08:59:07.441Z,345.00
2023-03-18T09:03:07.697Z,351.00
2023-03-18T09:07:07.799Z,347.00
2023-03-18T09:11:08.133Z,349.00
2023-03-18T09:15:08.220Z,347.00
2023-03-18T09:19:08.397Z,342.00
2023-03-18T09:23:08.569Z,342.00
2023-03-18T09:27:08.746Z,337.00
2023-03-18T09:31:08.919Z,339.00
2023-03-18T09:35:11.148Z,339.00
2023-03-18T09:39:09.028Z,341.00
2023-03-18T09:43:08.962Z,343.00
2023-03-18T09:47:09.113Z,345.00
2023-03-18T09:51:08.900Z,346.00
2023-03-18T09:55:08.858Z,339.00
2023-03-18T09:59:08.805Z,340.00
2023-03-18T10:03:08.841Z,344.00
2023-03-18T10:07:08.787Z,345.00
2023-03-18T10:11:08.732Z,346.00
2023-03-18T10:15:08.732Z,341.00
2023-03-18T10:19:08.670Z,338.00
2023-03-18T10:23:08.914Z,342.00
2023-03-18T10:27:08.901Z,338.00
2023-03-18T10:31:09.105Z,343.00
2023-03-18T10:35:09.215Z,339.00
2023-03-18T10:39:09.286Z,337.00
2023-03-18T10:43:09.417Z,340.00
2023-03-18T10:47:09.681Z,345.00
2023-03-18T10:51:09.637Z,346.00
2023-03-18T10:55:09.705Z,346.00
2023-03-18T10:59:09.794Z,344.00
2023-03-18T11:03:09.950Z,345.00
2023-03-18T11:07:10.043Z,341.00
2023-03-18T11:11:10.199Z,342.00
2023-03-18T11:15:10.181Z,340.00
2023-03-18T11:19:10.275Z,342.00
2023-03-18T11:23:10.382Z,347.00
2023-03-18T11:27:10.483Z,341.00
2023-03-18T11:31:10.581Z,346.00
2023-03-18T11:35:10.623Z,348.00
2023-03-18T11:39:10.699Z,349.00
2023-03-18T11:43:10.787Z,350.00
2023-03-18T11:47:10.867Z,353.00
2023-03-18T11:51:10.950Z,353.00
2023-03-18T11:55:11.043Z,349.00
2023-03-18T11:59:11.069Z,348.00
2023-03-18T12:03:11.192Z,348.00
2023-03-18T12:07:11.248Z,347.00
2023-03-18T12:11:11.336Z,348.00
2023-03-18T12:15:11.417Z,349.00
2023-03-18T12:19:11.504Z,354.00
2023-03-18T12:23:11.574Z,353.00
2023-03-18T12:27:11.658Z,355.00
2023-03-18T12:31:11.684Z,355.00
2023-03-18T12:35:11.782Z,353.00
2023-03-18T12:39:12.245Z,355.00
2023-03-18T12:43:11.920Z,353.00
2023-03-18T12:47:11.899Z,353.00
2023-03-18T12:51:11.865Z,352.00
2023-03-18T12:55:11.864Z,355.00
2023-03-18T12:59:11.813Z,349.00
2023-03-18T13:03:11.794Z,349.00
2023-03-18T13:07:11.710Z,344.00
2023-03-18T13:11:12.313Z,350.00
2023-03-18T13:15:11.659Z,353.00
2023-03-18T13:19:11.637Z,354.00
2023-03-18T13:23:11.630Z,352.00
2023-03-18T13:27:11.598Z,348.00
2023-03-18T13:31:11.588Z,354.00
2023-03-18T13:35:13.240Z,361.00
2023-03-18T13:39:11.470Z,358.00
2023-03-18T13:43:11.401Z,357.00
2023-03-18T13:49:47.986Z,354.00
2023-03-18T13:53:48.036Z,360.00
2023-03-18T13:57:48.042Z,357.00
2023-03-18T14:01:48.052Z,357.00
2023-03-18T14:05:47.935Z,355.00
2023-03-18T14:09:47.932Z,351.00
2023-03-18T14:13:47.953Z,350.00
2023-03-18T14:17:47.862Z,351.00
2023-03-18T14:21:47.810Z,351.00
2023-03-18T14:25:47.781Z,351.00
2023-03-18T14:29:47.758Z,353.00
2023-03-18T14:33:47.719Z,356.00
2023-03-18T14:37:47.684Z,358.00
2023-03-18T14:41:47.643Z,360.00
2023-03-18T14:45:47.617Z,365.00
2023-03-18T14:49:47.577Z,363.00
2023-03-18T14:53:48.827Z,365.00
2023-03-18T14:57:47.519Z,360.00
2023-03-18T15:01:47.515Z,360.00
2023-03-18T15:05:47.453Z,361.00
2023-03-18T15:09:47.494Z,358.00
2023-03-18T15:13:47.627Z,357.00
2023-03-18T15:17:47.819Z,361.00
2023-03-18T15:21:47.978Z,358.00
2023-03-18T15:25:48.144Z,362.00
2023-03-18T15:29:48.242Z,363.00
2023-03-18T15:33:48.124Z,361.00
2023-03-18T15:37:48.049Z,362.00
2023-03-18T15:41:48.049Z,360.00
2023-03-18T15:45:48.232Z,357.00
2023-03-18T15:49:47.954Z,360.00
2023-03-18T15:53:47.916Z,361.00
2023-03-18T15:57:47.849Z,364.00
2023-03-18T16:01:47.867Z,362.00
2023-03-18T16:05:47.802Z,360.00
2023-03-18T16:09:48.362Z,361.00
2023-03-18T16:13:47.820Z,362.00
2023-03-18T16:17:47.674Z,361.00
2023-03-18T16:21:47.674Z,358.00
2023-03-18T16:25:47.666Z,362.00
2023-03-18T16:29:47.738Z,361.00
2023-03-18T16:33:47.799Z,360.00
2023-03-18T16:37:47.876Z,362.00
2023-03-18T16:41:47.880Z,355.00
2023-03-18T16:45:47.856Z,353.00
2023-03-18T16:49:47.789Z,354.00
2023-03-18T16:53:47.793Z,347.00
2023-03-18T16:57:47.714Z,353.00
2023-03-18T17:01:47.695Z,356.00
2023-03-18T17:05:47.723Z,360.00
2023-03-18T17:09:47.643Z,356.00
2023-03-18T17:13:47.602Z,352.00
2023-03-18T17:17:47.591Z,359.00
2023-03-18T17:21:47.515Z,356.00
2023-03-18T17:25:47.539Z,358.00
2023-03-18T17:29:47.490Z,356.00
2023-03-18T17:33:47.487Z,353.00
2023-03-18T17:37:47.786Z,356.00
2023-03-18T17:41:47.397Z,352.00
2023-03-18T17:45:47.481Z,358.00
2023-03-18T17:49:47.343Z,364.00
2023-03-18T17:53:47.322Z,362.00
2023-03-18T17:57:47.285Z,360.00
2023-03-18T18:01:47.278Z,359.00
2023-03-18T18:05:47.194Z,359.00
2023-03-18T18:09:47.194Z,357.00
2023-03-18T18:13:47.147Z,363.00
2023-03-18T18:17:47.125Z,367.00
2023-03-18T18:21:47.101Z,368.00
2023-03-18T18:25:47.024Z,366.00
2023-03-18T18:29:47.024Z,362.00
2023-03-18T18:33:47.068Z,359.00
2023-03-18T18:37:47.112Z,359.00
2023-03-18T18:41:47.191Z,356.00
2023-03-18T18:45:47.256Z,360.00
2023-03-18T18:49:47.413Z,367.00
2023-03-18T18:53:47.537Z,362.00
2023-03-18T18:57:47.568Z,367.00
2023-03-18T19:01:47.630Z,369.00
2023-03-18T19:05:47.856Z,367.00
2023-03-18T19:09:47.893Z,367.00
2023-03-18T19:13:47.963Z,362.00
2023-03-18T19:17:48.072Z,368.00
2023-03-18T19:21:48.173Z,364.00
2023-03-18T19:25:48.309Z,367.00
2023-03-18T19:29:48.457Z,365.00
2023-03-18T19:33:48.512Z,365.00
2023-03-18T19:37:48.598Z,357.00
2023-03-18T19:41:48.724Z,361.00
2023-03-18T19:45:50.653Z,364.00
2023-03-18T19:49:48.789Z,363.00
2023-03-18T19:53:48.746Z,363.00
2023-03-18T19:57:48.845Z,358.00
2023-03-18T20:01:48.689Z,364.00
2023-03-18T20:05:48.697Z,365.00
2023-03-18T20:09:48.625Z,362.00
2023-03-18T20:13:48.589Z,365.00
2023-03-18T20:17:48.498Z,365.00
2023-03-18T20:21:48.499Z,362.00
2023-03-18T20:25:48.480Z,358.00
2023-03-18T20:29:48.448Z,359.00
2023-03-18T20:33:48.508Z,364.00
2023-03-18T20:37:48.364Z,361.00
2023-03-18T20:41:48.338Z,359.00
2023-03-18T20:45:48.856Z,356.00
2023-03-18T20:49:48.644Z,356.00
2023-03-18T20:53:48.781Z,352.00
2023-03-18T20:57:48.952Z,353.00
2023-03-18T21:01:49.143Z,356.00
2023-03-18T21:05:49.384Z,354.00
2023-03-18T21:09:49.440Z,355.00
2023-03-18T21:13:49.603Z,352.00
2023-03-18T21:17:49.813Z,348.00
2023-03-18T21:21:50.035Z,350.00
2023-03-18T21:25:50.091Z,352.00
2023-03-18T21:29:50.361Z,351.00
2023-03-18T21:33:50.486Z,349.00
2023-03-18T21:37:50.684Z,347.00
2023-03-18T21:41:50.843Z,348.00
2023-03-18T21:45:51.112Z,350.00
2023-03-18T21:49:51.196Z,349.00
2023-03-18T21:53:51.391Z,353.00
2023-03-18T21:57:51.605Z,352.00
2023-03-18T22:01:52.984Z,353.00
2023-03-18T22:05:52.001Z,353.00
2023-03-18T22:09:52.214Z,357.00
2023-03-18T22:13:52.206Z,354.00
2023-03-18T22:17:52.175Z,358.00
2023-03-18T22:21:52.088Z,357.00
2023-03-18T22:25:52.066Z,353.00
2023-03-18T22:29:52.038Z,353.00
2023-03-18T22:33:52.039Z,354.00
2023-03-18T22:37:52.560Z,353.00
2023-03-18T22:41:51.919Z,350.00
2023-03-18T22:45:51.940Z,352.00
2023-03-18T22:49:51.884Z,352.00
2023-03-18T22:53:51.840Z,350.00
2023-03-18T22:57:51.817Z,349.00
2023-03-18T23:01:51.960Z,348.00
2023-03-18T23:05:51.821Z,351.00
2023-03-18T23:09:56.890Z,353.00
2023-03-18T23:13:52.644Z,349.00
2023-03-18T23:17:51.659Z,342.00
2023-03-18T23:21:51.814Z,343.00
2023-03-18T23:25:51.850Z,346.00
2023-03-18T23:29:51.775Z,350.00
2023-03-18T23:33:51.734Z,348.00
2023-03-18T23:37:51.727Z,346.00
2023-03-18T23:41:51.744Z,345.00
2023-03-18T23:45:51.781Z,350.00
2023-03-18T23:49:51.605Z,349.00
2023-03-18T23:53:51.547Z,349.00
2023-03-18T23:57:51.561Z,347.00
